Time;durP1;ratioP1;P1;durP2;ratioP2;P2;SDS_P1;SDS_P2;PMS_P1;PMS_P2;Temp;Humidity;BMP_temperature;BMP_pressure;BME280_temperature;BME280_humidity;BME280_pressure;Samples;Min_cycle;Max_cycle;Signal;HPM_P1;HPM_P2
2023/07/10 00:01:45;;;;;;;0.00;0.00;;;;;;;17.78;100.00;101856.19;5053083;28;20029;-47
2023/07/10 00:04:19;;;;;;;0.00;0.00;;;;;;;17.77;100.00;101858.78;5054044;28;20055;-46
2023/07/10 00:06:45;;;;;;;0.08;0.08;;;;;;;17.76;100.00;101855.28;5053757;28;20103;-45
2023/07/10 00:09:11;;;;;;;0.07;0.07;;;;;;;17.77;100.00;101857.03;5053037;28;20063;-48
2023/07/10 00:11:37;;;;;;;0.00;0.00;;;;;;;17.76;100.00;101844.84;5053339;28;20280;-48
2023/07/10 00:14:06;;;;;;;0.00;0.00;;;;;;;17.74;100.00;101857.00;5053926;28;20061;-46
2023/07/10 00:16:31;;;;;;;0.00;0.00;;;;;;;17.78;100.00;101860.56;5052832;28;20029;-48
2023/07/10 00:18:56;;;;;;;0.00;0.00;;;;;;;17.78;100.00;101864.03;5053811;28;20031;-46
2023/07/10 00:21:22;;;;;;;0.00;0.00;;;;;;;17.82;100.00;101861.44;5053776;28;20021;-47
2023/07/10 00:23:47;;;;;;;0.00;0.00;;;;;;;17.81;100.00;101870.16;5052637;28;20107;-47
2023/07/10 00:26:19;;;;;;;0.00;0.00;;;;;;;17.77;100.00;101872.69;5053424;28;20047;-45
2023/07/10 00:28:44;;;;;;;0.00;0.00;;;;;;;17.72;100.00;101863.06;5052585;28;20031;-47
2023/07/10 00:31:12;;;;;;;0.00;0.00;;;;;;;17.64;100.00;101855.09;5053816;28;20024;-47
2023/07/10 00:33:38;;;;;;;0.10;0.10;;;;;;;17.65;100.00;101862.09;5053211;28;20174;-46
2023/07/10 00:36:29;;;;;;;0.00;0.00;;;;;;;17.63;100.00;101862.91;5052731;28;20434;-48
2023/07/10 00:38:55;;;;;;;0.10;0.10;;;;;;;17.59;100.00;101861.97;5053346;28;20531;-48
2023/07/10 00:41:29;;;;;;;0.00;0.00;;;;;;;17.51;100.00;101860.97;5053455;28;20391;-46
2023/07/10 00:44:00;;;;;;;0.00;0.00;;;;;;;17.39;100.00;101849.47;5052652;28;20025;-46
2023/07/10 00:46:41;;;;;;;0.00;0.00;;;;;;;17.25;100.00;101853.59;5053021;28;20078;-47
2023/07/10 00:49:29;;;;;;;0.00;0.00;;;;;;;17.22;100.00;101871.75;5053002;28;20489;-47
2023/07/10 00:52:01;;;;;;;0.00;0.00;;;;;;;17.14;100.00;101869.00;5052324;28;20116;-49
2023/07/10 00:54:31;;;;;;;0.00;0.00;;;;;;;17.08;100.00;101874.06;5052524;28;20029;-46
2023/07/10 00:56:59;;;;;;;0.00;0.00;;;;;;;17.08;100.00;101868.88;5052350;28;20032;-47
2023/07/10 00:59:27;;;;;;;0.00;0.00;;;;;;;17.07;100.00;101870.59;5052771;28;20040;-46
2023/07/10 01:02:16;;;;;;;0.08;0.08;;;;;;;17.09;100.00;101871.53;5052999;28;20033;-48
2023/07/10 01:04:47;;;;;;;0.00;0.00;;;;;;;16.94;100.00;101866.03;5052106;28;20394;-48
2023/07/10 01:07:15;;;;;;;0.00;0.00;;;;;;;16.98;100.00;101852.22;5053012;28;20541;-47
2023/07/10 01:09:44;;;;;;;0.10;0.10;;;;;;;17.08;100.00;101851.53;5052456;28;20028;-46
2023/07/10 01:12:10;;;;;;;0.00;0.00;;;;;;;16.93;100.00;101859.06;5052050;28;20024;-48
2023/07/10 01:14:35;;;;;;;0.10;0.10;;;;;;;17.00;100.00;101867.84;5052475;28;20346;-49
2023/07/10 01:17:06;;;;;;;0.00;0.00;;;;;;;16.92;100.00;101878.13;5052852;28;20041;-48
2023/07/10 01:19:33;;;;;;;0.00;0.00;;;;;;;16.90;100.00;101879.78;5051952;28;20028;-48
2023/07/10 01:21:59;;;;;;;0.00;0.00;;;;;;;16.87;100.00;101869.31;5052793;28;20044;-48
2023/07/10 01:24:25;;;;;;;0.00;0.00;;;;;;;16.78;100.00;101876.09;5052267;28;20048;-47
2023/07/10 01:26:51;;;;;;;0.00;0.00;;;;;;;16.82;100.00;101877.00;5051830;28;20037;-47
2023/07/10 01:29:27;;;;;;;0.00;0.00;;;;;;;16.73;100.00;101875.13;5052508;28;20461;-48
2023/07/10 01:31:55;;;;;;;0.00;0.00;;;;;;;16.68;100.00;101868.94;5052802;28;20488;-49
2023/07/10 01:34:23;;;;;;;0.10;0.00;;;;;;;16.72;100.00;101865.56;5052410;28;20029;-48
2023/07/10 01:36:49;;;;;;;0.10;0.10;;;;;;;16.77;100.00;101860.41;5052481;28;20475;-47
2023/07/10 01:39:14;;;;;;;0.00;0.00;;;;;;;16.75;100.00;101856.94;5051720;28;20427;-48
2023/07/10 01:41:42;;;;;;;0.10;0.10;;;;;;;16.70;100.00;101858.56;5052396;28;20537;-48
2023/07/10 01:44:20;;;;;;;0.00;0.00;;;;;;;16.61;100.00;101859.25;5052830;28;20280;-47
2023/07/10 01:46:46;;;;;;;0.00;0.00;;;;;;;16.55;100.00;101841.78;5051411;28;20029;-47
2023/07/10 01:49:11;;;;;;;0.05;0.05;;;;;;;16.62;100.00;101853.19;5052436;28;20033;-48
2023/07/10 01:51:36;;;;;;;0.00;0.00;;;;;;;16.56;100.00;101864.34;5052301;28;20033;-45
2023/07/10 01:54:05;;;;;;;0.00;0.00;;;;;;;16.61;100.00;101867.06;5051830;28;20025;-47
2023/07/10 01:56:32;;;;;;;0.00;0.00;;;;;;;16.65;100.00;101873.22;5052351;28;20081;-46
2023/07/10 01:58:57;;;;;;;0.00;0.00;;;;;;;16.67;100.00;101867.19;5052405;28;20366;-46
2023/07/10 02:01:22;;;;;;;0.00;0.00;;;;;;;16.69;100.00;101860.25;5051338;28;20491;-44
2023/07/10 02:03:48;;;;;;;0.00;0.00;;;;;;;16.64;100.00;101856.69;5052575;28;20116;-47
2023/07/10 02:06:13;;;;;;;0.00;0.00;;;;;;;16.62;100.00;101858.41;5055127;28;20032;-46
2023/07/10 02:08:38;;;;;;;0.03;0.03;;;;;;;16.57;100.00;101860.03;5055288;28;20035;-46
2023/07/10 02:11:04;;;;;;;0.00;0.00;;;;;;;16.53;100.00;101863.41;5056161;28;20419;-49
2023/07/10 02:13:29;;;;;;;0.00;0.00;;;;;;;16.50;100.00;101860.72;5055938;28;20060;-48
2023/07/10 02:16:00;;;;;;;0.00;0.00;;;;;;;16.44;100.00;101856.28;5055421;28;20025;-47
2023/07/10 02:18:25;;;;;;;0.00;0.00;;;;;;;16.36;100.00;101850.91;5055734;28;20032;-47
2023/07/10 02:20:52;;;;;;;0.05;0.05;;;;;;;16.32;100.00;101851.69;5055903;28;20128;-49
2023/07/10 02:23:18;;;;;;;0.00;0.00;;;;;;;16.27;100.00;101866.34;5055138;28;20041;-48
2023/07/10 02:25:43;;;;;;;0.00;0.00;;;;;;;16.26;100.00;101867.16;5055720;28;20159;-47
2023/07/10 02:28:08;;;;;;;0.00;0.00;;;;;;;16.27;100.00;101874.13;5055865;28;20029;-48
2023/07/10 02:30:37;;;;;;;0.10;0.10;;;;;;;16.24;100.00;101877.53;5054764;28;20074;-48
2023/07/10 02:33:03;;;;;;;0.00;0.00;;;;;;;16.22;100.00;101884.41;5055662;28;20384;-47
2023/07/10 02:35:28;;;;;;;0.00;0.00;;;;;;;16.13;100.00;101885.09;5054562;28;20461;-45
2023/07/10 02:37:53;;;;;;;0.00;0.00;;;;;;;16.22;100.00;101883.56;5055825;28;20025;-48
2023/07/10 02:40:19;;;;;;;0.00;0.00;;;;;;;16.25;100.00;101888.81;5055872;28;20025;-50
2023/07/10 02:42:44;;;;;;;0.00;0.00;;;;;;;16.28;100.00;101888.88;5054650;28;20021;-49
2023/07/10 02:45:10;;;;;;;0.00;0.00;;;;;;;16.30;100.00;101885.47;5055778;28;20029;-48
2023/07/10 02:47:35;;;;;;;0.00;0.00;;;;;;;16.26;100.00;101894.03;5055153;28;20036;-45
2023/07/10 02:50:00;;;;;;;0.00;0.00;;;;;;;16.20;100.00;101886.09;5054600;28;20028;-43
2023/07/10 02:52:26;;;;;;;0.00;0.00;;;;;;;16.13;100.00;101886.81;5055040;28;20049;-44
2023/07/10 02:54:51;;;;;;;0.05;0.05;;;;;;;16.21;100.00;101887.00;5055480;28;20036;-48
2023/07/10 02:57:16;;;;;;;0.00;0.00;;;;;;;16.11;100.00;101889.38;5054612;28;20087;-48
2023/07/10 02:59:42;;;;;;;0.00;0.00;;;;;;;16.00;100.00;101884.75;5054966;28;20052;-47
2023/07/10 03:02:07;;;;;;;0.00;0.00;;;;;;;15.98;100.00;101884.72;5055249;28;20020;-47
2023/07/10 03:04:32;;;;;;;0.08;0.08;;;;;;;16.01;100.00;101891.72;5054037;28;20388;-47
2023/07/10 03:06:58;;;;;;;0.00;0.00;;;;;;;15.92;100.00;101894.97;5055078;28;20035;-44
2023/07/10 03:09:23;;;;;;;0.00;0.00;;;;;;;15.98;100.00;101900.31;5054931;28;20027;-45
2023/07/10 03:11:48;;;;;;;0.00;0.00;;;;;;;15.98;100.00;101895.13;5054530;28;20025;-44
2023/07/10 03:14:13;;;;;;;0.00;0.00;;;;;;;16.01;100.00;101897.81;5055101;28;20029;-45
2023/07/10 03:16:39;;;;;;;0.05;0.05;;;;;;;16.00;100.00;101898.66;5054258;28;20029;-46
2023/07/10 03:19:05;;;;;;;0.00;0.00;;;;;;;15.97;100.00;101906.34;5054061;28;20033;-44
2023/07/10 03:21:30;;;;;;;0.00;0.00;;;;;;;15.99;100.00;101902.09;5054561;28;20029;-46
2023/07/10 03:23:55;;;;;;;0.00;0.00;;;;;;;15.95;100.00;101902.84;5054633;28;20043;-46
2023/07/10 03:26:21;;;;;;;0.00;0.00;;;;;;;15.93;100.00;101907.13;5054321;28;20355;-46
2023/07/10 03:28:46;;;;;;;0.00;0.00;;;;;;;15.82;100.00;101912.06;5054555;28;20036;-47
2023/07/10 03:31:12;;;;;;;0.05;0.05;;;;;;;15.87;100.00;101917.38;5054727;28;20044;-45
2023/07/10 03:33:37;;;;;;;0.10;0.10;;;;;;;15.92;100.00;101918.38;5053562;28;20385;-47
2023/07/10 03:36:05;;;;;;;0.00;0.00;;;;;;;15.75;100.00;101916.22;5054557;28;20110;-45
2023/07/10 03:38:31;;;;;;;0.03;0.03;;;;;;;15.80;100.00;101914.59;5054054;28;20065;-44
2023/07/10 03:40:57;;;;;;;0.00;0.00;;;;;;;15.68;100.00;101922.09;5054307;28;20072;-43
2023/07/10 03:43:23;;;;;;;0.10;0.10;;;;;;;15.63;100.00;101929.78;5054364;28;20025;-46
2023/07/10 03:45:50;;;;;;;0.08;0.08;;;;;;;15.56;100.00;101924.38;5053713;28;20384;-44
2023/07/10 03:48:15;;;;;;;0.00;0.00;;;;;;;15.54;100.00;101921.72;5054129;28;20037;-44
2023/07/10 03:50:41;;;;;;;0.10;0.10;;;;;;;15.57;100.00;101918.31;5054094;28;20392;-43
2023/07/10 03:53:07;;;;;;;0.03;0.00;;;;;;;15.48;100.00;101912.06;5053570;28;20029;-46
2023/07/10 03:55:32;;;;;;;0.03;0.03;;;;;;;15.47;100.00;101919.81;5053889;28;20385;-45
2023/07/10 03:57:57;;;;;;;0.10;0.10;;;;;;;15.45;100.00;101914.59;5054269;28;20029;-44
2023/07/10 04:00:23;;;;;;;0.00;0.00;;;;;;;15.45;100.00;101924.97;5053046;28;20021;-43
2023/07/10 04:02:48;;;;;;;0.00;0.00;;;;;;;15.36;100.00;101929.91;5053915;28;20061;-46
2023/07/10 04:05:13;;;;;;;0.10;0.10;;;;;;;15.39;100.00;101930.00;5053902;28;20025;-45
2023/07/10 04:07:39;;;;;;;0.10;0.10;;;;;;;15.39;100.00;101937.78;5052816;28;20032;-43
2023/07/10 04:10:04;;;;;;;0.08;0.08;;;;;;;15.44;100.00;101944.00;5053995;28;20436;-43
2023/07/10 04:12:30;;;;;;;0.10;0.10;;;;;;;15.50;100.00;101938.06;5053383;28;20429;-45
2023/07/10 04:14:55;;;;;;;0.10;0.03;;;;;;;15.50;100.00;101942.41;5053028;28;20085;-43
2023/07/10 04:17:20;;;;;;;0.10;0.10;;;;;;;15.55;100.00;101946.88;5053724;28;20033;-46
2023/07/10 04:19:46;;;;;;;0.00;0.00;;;;;;;15.59;100.00;101953.03;5053278;28;20054;-44
2023/07/10 04:22:11;;;;;;;0.00;0.00;;;;;;;15.66;100.00;101948.88;5052766;28;20074;-46
2023/07/10 04:24:36;;;;;;;0.00;0.00;;;;;;;15.65;100.00;101948.00;5053035;28;20059;-48
2023/07/10 04:27:02;;;;;;;0.00;0.00;;;;;;;15.60;100.00;101940.06;5053439;28;20023;-43
2023/07/10 04:29:27;;;;;;;0.10;0.10;;;;;;;15.54;100.00;101939.91;5052074;28;20033;-44
2023/07/10 04:31:52;;;;;;;0.00;0.00;;;;;;;15.59;100.00;101945.25;5053436;28;20046;-42
2023/07/10 04:34:18;;;;;;;0.00;0.00;;;;;;;15.69;100.00;101948.97;5053348;28;20029;-47
2023/07/10 04:36:43;;;;;;;0.00;0.00;;;;;;;15.75;100.00;101949.09;5052454;28;20380;-42
2023/07/10 04:39:10;;;;;;;0.00;0.00;;;;;;;15.80;100.00;101953.59;5053425;28;20048;-43
2023/07/10 04:41:38;;;;;;;0.10;0.10;;;;;;;15.93;100.00;101953.94;5053154;28;20025;-45
2023/07/10 04:44:03;;;;;;;0.10;0.10;;;;;;;15.99;100.00;101946.28;5052562;28;20021;-44
2023/07/10 04:46:29;;;;;;;0.08;0.08;;;;;;;16.09;100.00;101950.00;5053013;28;20090;-43
2023/07/10 04:48:55;;;;;;;0.00;0.00;;;;;;;16.19;100.00;101946.78;5052178;28;20021;-43
2023/07/10 04:51:20;;;;;;;0.10;0.10;;;;;;;16.30;100.00;101957.44;5053460;28;20052;-44
2023/07/10 04:53:46;;;;;;;0.00;0.00;;;;;;;16.34;100.00;101954.06;5052752;28;20103;-43
2023/07/10 04:56:12;;;;;;;0.00;0.00;;;;;;;16.39;100.00;101957.66;5052330;28;20024;-47
2023/07/10 04:58:49;;;;;;;0.05;0.05;;;;;;;16.40;100.00;101967.22;5052728;28;20025;-43
2023/07/10 05:01:14;;;;;;;0.10;0.10;;;;;;;16.43;100.00;101962.06;5052828;28;20500;-44
2023/07/10 05:03:39;;;;;;;0.00;0.00;;;;;;;16.40;100.00;101967.22;5051704;28;20033;-44
2023/07/10 05:06:05;;;;;;;0.10;0.10;;;;;;;16.40;100.00;101962.00;5053077;28;20488;-46
2023/07/10 05:08:30;;;;;;;0.00;0.00;;;;;;;16.43;100.00;101969.00;5052634;28;20054;-42
2023/07/10 05:10:56;;;;;;;0.03;0.00;;;;;;;16.45;100.00;101967.34;5052100;28;20465;-44
2023/07/10 05:13:23;;;;;;;0.05;0.05;;;;;;;16.53;100.00;101977.94;5052867;28;20060;-44
2023/07/10 05:15:49;;;;;;;0.00;0.00;;;;;;;16.56;100.00;101972.78;5052704;28;20021;-45
2023/07/10 05:18:15;;;;;;;0.10;0.10;;;;;;;16.60;100.00;101974.59;5052134;28;20098;-45
2023/07/10 05:20:43;;;;;;;0.10;0.10;;;;;;;16.63;100.00;101974.69;5052637;28;20465;-43
2023/07/10 05:23:09;;;;;;;0.10;0.10;;;;;;;16.65;100.00;101978.19;5052621;28;20049;-44
2023/07/10 05:25:34;;;;;;;0.08;0.08;;;;;;;16.74;100.00;101983.59;5051628;28;20047;-44
2023/07/10 05:28:01;;;;;;;0.00;0.00;;;;;;;16.77;100.00;101983.69;5052590;28;20056;-47
2023/07/10 05:30:27;;;;;;;0.10;0.10;;;;;;;16.82;100.00;101980.28;5052207;28;20448;-48
2023/07/10 05:32:52;;;;;;;0.00;0.00;;;;;;;16.87;100.00;101983.88;5052009;28;20340;-47
2023/07/10 05:35:17;;;;;;;0.00;0.00;;;;;;;16.91;100.00;101986.63;5052781;28;20017;-45
2023/07/10 05:37:43;;;;;;;0.00;0.00;;;;;;;16.93;100.00;101984.03;5052350;28;20461;-46
2023/07/10 05:40:08;;;;;;;0.10;0.10;;;;;;;16.99;100.00;101984.19;5054609;28;20473;-45
2023/07/10 05:42:34;;;;;;;0.00;0.00;;;;;;;17.00;100.00;101985.91;5056377;28;20032;-47
2023/07/10 05:44:59;;;;;;;0.00;0.00;;;;;;;17.07;100.00;101977.41;5056546;28;20055;-43
2023/07/10 05:47:24;;;;;;;0.10;0.10;;;;;;;17.10;100.00;101980.06;5055406;28;20400;-43
2023/07/10 05:49:49;;;;;;;0.00;0.00;;;;;;;17.15;100.00;101981.91;5056338;28;20076;-44
2023/07/10 05:52:15;;;;;;;0.10;0.10;;;;;;;17.20;100.00;101978.53;5055604;28;20107;-47
2023/07/10 05:54:40;;;;;;;0.00;0.00;;;;;;;17.22;100.00;101981.16;5056153;28;20029;-43
2023/07/10 05:57:06;;;;;;;0.10;0.10;;;;;;;17.25;100.00;101976.03;5056341;28;20028;-43
2023/07/10 05:59:31;;;;;;;0.10;0.10;;;;;;;17.26;100.00;101978.66;5055252;28;20470;-43
2023/07/10 06:01:57;;;;;;;0.00;0.00;;;;;;;17.33;100.00;101981.41;5056149;28;20104;-43
2023/07/10 06:04:22;;;;;;;0.10;0.10;;;;;;;17.46;100.00;101982.50;5056141;28;20021;-43
2023/07/10 06:06:48;;;;;;;0.00;0.00;;;;;;;17.48;100.00;101980.78;5055611;28;20032;-47
2023/07/10 06:09:14;;;;;;;0.10;0.10;;;;;;;17.59;100.00;101987.09;5056165;28;20108;-45
2023/07/10 06:11:40;;;;;;;0.00;0.00;;;;;;;17.61;100.00;101974.94;5055910;28;20052;-44
2023/07/10 06:14:06;;;;;;;0.00;0.00;;;;;;;17.67;100.00;101977.69;5055167;28;20259;-43
2023/07/10 06:16:31;;;;;;;0.10;0.00;;;;;;;17.72;100.00;101983.00;5055553;28;20096;-45
2023/07/10 06:18:56;;;;;;;0.00;0.00;;;;;;;17.76;100.00;101990.88;5056089;28;20078;-44
2023/07/10 06:21:22;;;;;;;0.00;0.00;;;;;;;17.85;100.00;101982.34;5055116;28;20029;-43
2023/07/10 06:23:47;;;;;;;0.00;0.00;;;;;;;17.94;100.00;101989.50;5055761;28;20072;-44
2023/07/10 06:26:13;;;;;;;0.10;0.10;;;;;;;17.99;100.00;101993.06;5055975;28;20338;-47
2023/07/10 06:28:38;;;;;;;0.00;0.00;;;;;;;18.09;100.00;101999.31;5054533;28;20029;-45
2023/07/10 06:31:10;;;;;;;0.00;0.00;;;;;;;18.13;100.00;101995.00;5055660;28;20093;-47
2023/07/10 06:33:36;;;;;;;0.10;0.10;;;;;;;18.09;100.00;102008.00;5055524;28;20028;-46
2023/07/10 06:36:02;;;;;;;0.10;0.10;;;;;;;18.16;100.00;102006.38;5054693;28;20021;-44
2023/07/10 06:38:28;;;;;;;0.00;0.00;;;;;;;18.24;100.00;102011.72;5055262;28;20381;-43
2023/07/10 06:40:54;;;;;;;0.00;0.00;;;;;;;18.33;100.00;102003.19;5055670;28;20453;-44
2023/07/10 06:43:20;;;;;;;0.00;0.00;;;;;;;18.33;100.00;102013.63;5054697;28;20043;-45
2023/07/10 06:45:47;;;;;;;0.00;0.00;;;;;;;18.42;100.00;102013.75;5054969;28;20460;-43
2023/07/10 06:48:12;;;;;;;0.10;0.10;;;;;;;18.46;100.00;102009.47;5055435;28;20029;-47
2023/07/10 06:50:38;;;;;;;0.00;0.00;;;;;;;18.64;100.00;102008.88;5053580;28;20017;-48
2023/07/10 06:53:04;;;;;;;0.10;0.10;;;;;;;18.60;99.42;102007.94;5055445;28;20075;-49
2023/07/10 06:55:30;;;;;;;0.10;0.10;;;;;;;18.64;99.22;102014.94;5054288;28;20097;-49
2023/07/10 06:57:55;;;;;;;0.00;0.00;;;;;;;18.70;98.69;102020.28;5055208;28;20029;-43
2023/07/10 07:00:20;;;;;;;0.10;0.10;;;;;;;18.82;98.08;102011.72;5055373;28;20032;-43
2023/07/10 07:02:46;;;;;;;0.10;0.10;;;;;;;18.90;97.01;102014.47;5053983;28;20021;-45
2023/07/10 07:05:12;;;;;;;0.10;0.10;;;;;;;18.96;95.78;102022.41;5055089;28;20021;-43
2023/07/10 07:07:38;;;;;;;0.10;0.10;;;;;;;19.06;96.73;102024.28;5054633;28;20025;-47
2023/07/10 07:10:14;;;;;;;0.08;0.08;;;;;;;19.18;95.62;102022.69;5054101;28;20491;-43
2023/07/10 07:12:41;;;;;;;0.00;0.00;;;;;;;19.27;95.40;102014.97;5054502;28;20032;-45
2023/07/10 07:15:08;;;;;;;0.03;0.03;;;;;;;19.37;95.80;102011.59;5055169;28;20028;-47
2023/07/10 07:17:34;;;;;;;0.00;0.00;;;;;;;19.33;92.15;102011.56;5053716;28;20535;-43
2023/07/10 07:19:59;;;;;;;0.10;0.00;;;;;;;19.41;92.90;102005.53;5054842;28;20028;-43
2023/07/10 07:22:24;;;;;;;0.03;0.03;;;;;;;19.49;93.27;102012.63;5054529;28;20064;-44
2023/07/10 07:24:50;;;;;;;0.00;0.00;;;;;;;19.63;92.17;102013.63;5053918;28;20104;-45
2023/07/10 07:27:15;;;;;;;0.00;0.00;;;;;;;19.63;89.68;102021.47;5054681;28;20033;-45
2023/07/10 07:29:41;;;;;;;0.00;0.00;;;;;;;19.75;91.46;102018.09;5054530;28;20021;-44
2023/07/10 07:32:08;;;;;;;0.00;0.00;;;;;;;19.86;90.62;102019.13;5053845;28;20461;-47
2023/07/10 07:34:33;;;;;;;0.00;0.00;;;;;;;19.93;90.23;102025.28;5054152;28;20487;-44
2023/07/10 07:36:59;;;;;;;0.03;0.03;;;;;;;20.05;89.64;102030.66;5054628;28;20022;-47
2023/07/10 07:39:28;;;;;;;0.00;0.00;;;;;;;20.13;90.08;102033.34;5053317;28;20431;-44
2023/07/10 07:41:54;;;;;;;0.00;0.00;;;;;;;20.18;87.68;102033.38;5054433;28;20021;-44
2023/07/10 07:44:19;;;;;;;0.00;0.00;;;;;;;20.31;88.09;102034.34;5054302;28;20465;-44
2023/07/10 07:46:44;;;;;;;0.00;0.00;;;;;;;20.36;86.32;102025.69;5053230;28;20044;-45
2023/07/10 07:49:10;;;;;;;0.00;0.00;;;;;;;20.44;85.74;102030.97;5054339;28;20029;-47
2023/07/10 07:51:36;;;;;;;0.00;0.00;;;;;;;20.53;84.68;102032.78;5053909;28;20044;-44
2023/07/10 07:54:10;;;;;;;0.00;0.00;;;;;;;20.60;84.50;102036.31;5053312;28;20044;-45
2023/07/10 07:56:35;;;;;;;0.00;0.00;;;;;;;20.66;80.21;102033.75;5053765;28;20021;-45
2023/07/10 07:59:00;;;;;;;0.00;0.00;;;;;;;20.65;80.20;102029.38;5053158;28;20120;-48
2023/07/10 08:01:26;;;;;;;0.10;0.10;;;;;;;20.66;81.45;102025.91;5053852;28;20082;-47
2023/07/10 08:03:52;;;;;;;0.00;0.00;;;;;;;20.68;80.57;102027.66;5053093;28;20021;-45
2023/07/10 08:06:17;;;;;;;0.00;0.00;;;;;;;20.80;80.36;102016.41;5053245;28;20066;-46
2023/07/10 08:08:42;;;;;;;0.00;0.00;;;;;;;20.87;77.16;102019.94;5053447;28;20165;-46
2023/07/10 08:11:08;;;;;;;0.00;0.00;;;;;;;20.94;80.31;102015.59;5054042;28;20055;-47
2023/07/10 08:13:34;;;;;;;0.00;0.00;;;;;;;21.00;77.67;102011.25;5052958;28;20099;-44
2023/07/10 08:15:59;;;;;;;0.00;0.00;;;;;;;21.15;76.84;102020.03;5053914;28;20098;-46
2023/07/10 08:18:24;;;;;;;0.00;0.00;;;;;;;21.17;75.85;102026.19;5053331;28;20025;-46
2023/07/10 08:20:50;;;;;;;0.00;0.00;;;;;;;21.09;74.14;102022.66;5052909;28;20048;-48
2023/07/10 08:23:24;;;;;;;0.00;0.00;;;;;;;21.19;75.28;102027.06;5070003;28;20748;-44
2023/07/10 08:25:49;;;;;;;0.00;0.00;;;;;;;21.27;77.35;102017.47;5070465;28;20523;-45
2023/07/10 08:28:14;;;;;;;0.00;0.00;;;;;;;21.29;73.79;102012.25;5069655;28;20066;-49
2023/07/10 08:30:40;;;;;;;0.00;0.00;;;;;;;21.45;75.58;102016.66;5069829;28;20024;-49
2023/07/10 08:33:05;;;;;;;0.20;0.00;;;;;;;21.59;74.36;102022.00;5070218;28;20035;-55
2023/07/10 08:35:31;;;;;;;0.00;0.00;;;;;;;21.61;72.63;102022.00;5069012;28;20049;-46
2023/07/10 08:37:56;;;;;;;0.00;0.00;;;;;;;21.59;70.33;102024.63;5069940;28;20062;-48
2023/07/10 08:40:29;;;;;;;0.08;0.00;;;;;;;21.76;71.65;102031.66;5070255;28;20040;-47
2023/07/10 08:42:55;;;;;;;0.00;0.00;;;;;;;21.76;71.83;102029.03;5069173;28;20031;-49
2023/07/10 08:45:37;;;;;;;0.00;0.00;;;;;;;21.76;73.71;102022.03;5069899;28;20025;-48
2023/07/10 08:48:28;;;;;;;0.00;0.00;;;;;;;21.84;69.93;102016.78;5068984;28;20029;-47
2023/07/10 08:50:58;;;;;;;0.00;0.00;;;;;;;21.92;68.59;102028.16;5069941;28;20021;-46
2023/07/10 08:53:28;;;;;;;0.00;0.00;;;;;;;22.09;69.37;102015.06;5069399;28;20384;-49
2023/07/10 08:55:59;;;;;;;0.00;0.00;;;;;;;22.27;68.36;102015.94;5068913;28;20028;-45
2023/07/10 08:58:29;;;;;;;0.00;0.00;;;;;;;22.28;67.17;102010.66;5069218;28;20473;-49
2023/07/10 09:01:01;;;;;;;0.00;0.00;;;;;;;22.40;66.14;102019.44;5069385;28;20469;-45
2023/07/10 09:03:39;;;;;;;0.00;0.00;;;;;;;22.45;63.87;102023.84;5068475;28;20039;-48
2023/07/10 09:06:10;;;;;;;0.00;0.00;;;;;;;22.52;63.12;102022.06;5069632;28;20021;-47
2023/07/10 09:08:36;;;;;;;0.00;0.00;;;;;;;22.59;62.42;102028.19;5069163;28;20029;-48
2023/07/10 09:11:03;;;;;;;0.00;0.00;;;;;;;22.58;61.56;102029.94;5068442;28;20021;-47
2023/07/10 09:13:47;;;;;;;0.00;0.00;;;;;;;22.85;64.91;102034.28;5068911;28;20096;-48
2023/07/10 09:16:15;;;;;;;0.00;0.00;;;;;;;22.86;60.56;102035.13;5068622;28;20062;-48
2023/07/10 09:18:47;;;;;;;0.00;0.00;;;;;;;23.15;62.53;102039.44;5069014;28;20095;-45
2023/07/10 09:21:20;;;;;;;0.00;0.00;;;;;;;23.05;59.56;102032.44;5068859;28;20472;-48
2023/07/10 09:23:47;;;;;;;0.00;0.00;;;;;;;23.28;61.32;102012.22;5067977;28;20036;-45
2023/07/10 09:26:18;;;;;;;0.00;0.00;;;;;;;23.35;57.98;102023.59;5069195;28;20025;-45
2023/07/10 09:29:06;;;;;;;0.00;0.00;;;;;;;23.27;56.26;102023.63;5068767;28;20146;-45
2023/07/10 09:32:14;;;;;;;0.00;0.00;;;;;;;23.43;57.87;102031.44;5063679;28;20032;-46
2023/07/10 09:34:51;;;;;;;0.00;0.00;;;;;;;23.29;57.42;102029.75;5033751;28;20025;-48
2023/07/10 09:37:19;;;;;;;0.00;0.00;;;;;;;23.55;58.22;102026.13;5032747;28;20088;-46
2023/07/10 09:39:45;;;;;;;0.05;0.00;;;;;;;23.99;58.89;102026.75;5046086;28;20033;-46
2023/07/10 09:42:18;;;;;;;0.00;0.00;;;;;;;24.05;56.27;102026.66;5055484;28;20025;-45
2023/07/10 09:44:49;;;;;;;0.00;0.00;;;;;;;24.14;54.28;102025.72;5054362;28;20036;-44
2023/07/10 09:47:15;;;;;;;0.00;0.00;;;;;;;24.65;54.61;102026.16;5055595;28;20033;-48
2023/07/10 09:49:54;;;;;;;0.00;0.00;;;;;;;24.92;55.10;102026.75;5055211;28;20032;-45
2023/07/10 09:52:38;;;;;;;0.00;0.00;;;;;;;25.07;52.38;102020.38;5054521;28;20496;-47
2023/07/10 09:55:06;;;;;;;0.00;0.00;;;;;;;24.86;52.61;102024.16;5055193;28;20064;-44
2023/07/10 09:57:32;;;;;;;0.00;0.00;;;;;;;25.03;52.15;102023.09;5055065;28;20033;-49
2023/07/10 09:59:59;;;;;;;0.00;0.00;;;;;;;24.94;51.79;102024.94;5054511;28;20078;-49
2023/07/10 10:02:32;;;;;;;0.00;0.00;;;;;;;24.88;52.41;102027.66;5054771;28;20025;-47
2023/07/10 10:05:14;;;;;;;0.00;0.00;;;;;;;25.40;54.25;102035.84;5055104;28;20128;-48
2023/07/10 10:07:46;;;;;;;0.00;0.00;;;;;;;25.31;51.68;102027.13;5053927;28;20028;-49
2023/07/10 10:10:22;;;;;;;0.00;0.00;;;;;;;25.40;53.42;102023.53;5055009;28;20029;-47
2023/07/10 10:12:54;;;;;;;0.00;0.00;;;;;;;26.18;49.34;102025.00;5054391;28;20068;-48
2023/07/10 10:15:32;;;;;;;0.00;0.00;;;;;;;25.68;48.86;102023.13;5055042;28;20021;-46
2023/07/10 10:18:01;;;;;;;0.00;0.00;;;;;;;25.83;49.34;102027.28;5054838;28;20033;-49
2023/07/10 10:20:30;;;;;;;0.00;0.00;;;;;;;25.14;47.76;102021.22;5053608;28;20029;-47
2023/07/10 10:22:55;;;;;;;0.00;0.00;;;;;;;25.90;49.72;102017.50;5054521;28;20048;-45
2023/07/10 10:25:32;;;;;;;0.00;0.00;;;;;;;27.45;45.65;102015.53;5054782;28;20029;-46
2023/07/10 10:28:24;;;;;;;0.00;0.00;;;;;;;27.77;45.10;102006.81;5053966;28;20115;-47
2023/07/10 10:30:57;;;;;;;0.00;0.00;;;;;;;29.13;42.94;102017.34;5054852;28;20039;-48
2023/07/10 10:33:58;;;;;;;0.00;0.00;;;;;;;29.01;43.89;102018.59;5054402;28;20060;-47
2023/07/10 10:36:44;;;;;;;0.00;0.00;;;;;;;28.78;40.54;102025.47;5054300;28;20060;-45
2023/07/10 10:39:20;;;;;;;0.00;0.00;;;;;;;27.60;40.61;102019.56;5054623;28;20035;-48
2023/07/10 10:41:45;;;;;;;0.00;0.00;;;;;;;26.78;42.57;102023.94;5053275;28;20381;-48
2023/07/10 10:44:29;;;;;;;0.00;0.00;;;;;;;26.34;44.99;102022.97;5054368;28;20503;-45
2023/07/10 10:47:29;;;;;;;0.00;0.00;;;;;;;26.18;44.16;102025.00;5053907;28;20290;-44
2023/07/10 10:49:59;;;;;;;0.00;0.00;;;;;;;26.70;43.75;102015.25;5053533;28;20029;-48
2023/07/10 10:52:36;;;;;;;0.10;0.00;;;;;;;27.78;41.92;102007.66;5053966;28;20033;-45
2023/07/10 10:55:11;;;;;;;0.00;0.00;;;;;;;28.16;40.40;102021.78;5053292;28;20496;-47
2023/07/10 10:57:49;;;;;;;0.00;0.00;;;;;;;28.70;39.23;102025.69;5053733;28;20498;-47
2023/07/10 11:00:35;;;;;;;0.00;0.00;;;;;;;29.67;38.93;102029.91;5054331;28;20044;-48
2023/07/10 11:03:11;;;;;;;0.00;0.00;;;;;;;28.71;38.07;102031.84;5053076;28;20036;-44
2023/07/10 11:05:40;;;;;;;0.00;0.00;;;;;;;27.91;39.94;102035.63;5053839;28;20033;-48
2023/07/10 11:08:23;;;;;;;0.00;0.00;;;;;;;27.47;41.59;102034.88;5053904;28;20027;-47
2023/07/10 11:10:50;;;;;;;0.00;0.00;;;;;;;27.09;41.16;102044.50;5053223;28;20029;-47
2023/07/10 11:13:36;;;;;;;0.00;0.00;;;;;;;26.74;42.58;102027.53;5053752;28;20029;-48
2023/07/10 11:16:06;;;;;;;0.00;0.00;;;;;;;26.20;43.10;102034.66;5053078;28;20813;-45
2023/07/10 11:18:33;;;;;;;0.00;0.00;;;;;;;27.16;41.81;102030.22;5053373;28;20032;-48
2023/07/10 11:21:01;;;;;;;0.00;0.00;;;;;;;27.97;41.15;102017.84;5053679;28;20053;-48
2023/07/10 11:23:43;;;;;;;0.00;0.00;;;;;;;29.44;38.85;102022.66;5052604;28;20046;-48
2023/07/10 11:26:12;;;;;;;0.00;0.00;;;;;;;30.20;35.98;102017.53;5053645;28;20025;-46